sensor_id;sensor_type;location;lat;lon;timestamp;pressure;altitude;pressure_sealevel;temperature;humidity
32492;BME280;20605;49.742;18.802;2023-02-16T00:03:41;98706.84;;;-0.97;100.00
32492;BME280;20605;49.742;18.802;2023-02-16T00:06:07;98701.81;;;-0.95;100.00
32492;BME280;20605;49.742;18.802;2023-02-16T00:08:39;98702.66;;;-0.88;100.00
32492;BME280;20605;49.742;18.802;2023-02-16T00:11:12;98700.77;;;-0.83;100.00
32492;BME280;20605;49.742;18.802;2023-02-16T00:13:59;98696.45;;;-0.79;100.00
32492;BME280;20605;49.742;18.802;2023-02-16T00:16:25;98690.50;;;-0.78;100.00
32492;BME280;20605;49.742;18.802;2023-02-16T00:18:51;98692.92;;;-0.83;100.00
32492;BME280;20605;49.742;18.802;2023-02-16T00:21:17;98693.98;;;-0.88;100.00
32492;BME280;20605;49.742;18.802;2023-02-16T00:23:44;98695.35;;;-0.94;100.00
32492;BME280;20605;49.742;18.802;2023-02-16T00:26:18;98694.16;;;-0.94;100.00
32492;BME280;20605;49.742;18.802;2023-02-16T00:28:45;98691.23;;;-0.95;100.00
32492;BME280;20605;49.742;18.802;2023-02-16T00:31:20;98689.39;;;-0.94;100.00
32492;BME280;20605;49.742;18.802;2023-02-16T00:33:48;98685.61;;;-0.94;100.00
32492;BME280;20605;49.742;18.802;2023-02-16T00:36:19;98685.06;;;-0.95;100.00
32492;BME280;20605;49.742;18.802;2023-02-16T00:38:45;98687.77;;;-0.97;100.00
32492;BME280;20605;49.742;18.802;2023-02-16T00:41:20;98681.40;;;-0.99;100.00
32492;BME280;20605;49.742;18.802;2023-02-16T00:44:10;98676.73;;;-1.07;100.00
32492;BME280;20605;49.742;18.802;2023-02-16T00:46:38;98677.15;;;-1.05;100.00
32492;BME280;20605;49.742;18.802;2023-02-16T00:49:04;98673.73;;;-0.99;100.00
32492;BME280;20605;49.742;18.802;2023-02-16T00:51:30;98670.52;;;-0.91;100.00
32492;BME280;20605;49.742;18.802;2023-02-16T00:53:56;98670.36;;;-0.85;100.00
32492;BME280;20605;49.742;18.802;2023-02-16T00:56:21;98671.30;;;-0.88;100.00
32492;BME280;20605;49.742;18.802;2023-02-16T00:58:49;98667.52;;;-0.95;100.00
32492;BME280;20605;49.742;18.802;2023-02-16T01:01:19;98666.83;;;-1.02;100.00
32492;BME280;20605;49.742;18.802;2023-02-16T01:03:46;98668.98;;;-1.04;100.00
32492;BME280;20605;49.742;18.802;2023-02-16T01:06:12;98666.60;;;-1.04;100.00
32492;BME280;20605;49.742;18.802;2023-02-16T01:09:08;98664.98;;;-1.08;100.00
32492;BME280;20605;49.742;18.802;2023-02-16T01:11:54;98667.95;;;-1.11;100.00
32492;BME280;20605;49.742;18.802;2023-02-16T01:14:20;98671.20;;;-1.10;100.00
32492;BME280;20605;49.742;18.802;2023-02-16T01:16:46;98669.94;;;-1.07;100.00
32492;BME280;20605;49.742;18.802;2023-02-16T01:19:12;98669.68;;;-1.04;100.00
32492;BME280;20605;49.742;18.802;2023-02-16T01:21:38;98665.70;;;-1.00;100.00
32492;BME280;20605;49.742;18.802;2023-02-16T01:24:05;98667.33;;;-0.96;100.00
32492;BME280;20605;49.742;18.802;2023-02-16T01:26:36;98665.18;;;-0.93;100.00
32492;BME280;20605;49.742;18.802;2023-02-16T01:29:02;98655.29;;;-0.94;100.00
32492;BME280;20605;49.742;18.802;2023-02-16T01:31:28;98652.77;;;-0.93;100.00
32492;BME280;20605;49.742;18.802;2023-02-16T01:33:54;98651.20;;;-0.94;100.00
32492;BME280;20605;49.742;18.802;2023-02-16T01:36:37;98649.04;;;-0.98;100.00
32492;BME280;20605;49.742;18.802;2023-02-16T01:39:06;98648.09;;;-1.14;100.00
32492;BME280;20605;49.742;18.802;2023-02-16T01:44:33;98640.36;;;-1.35;100.00
32492;BME280;20605;49.742;18.802;2023-02-16T01:50:18;98628.99;;;-1.20;100.00
32492;BME280;20605;49.742;18.802;2023-02-16T01:52:52;98625.10;;;-1.19;100.00
32492;BME280;20605;49.742;18.802;2023-02-16T01:55:35;98619.45;;;-1.08;100.00
32492;BME280;20605;49.742;18.802;2023-02-16T02:03:20;98610.31;;;-0.32;100.00
32492;BME280;20605;49.742;18.802;2023-02-16T02:06:14;98603.21;;;0.16;100.00
32492;BME280;20605;49.742;18.802;2023-02-16T02:08:55;98601.58;;;0.51;100.00
32492;BME280;20605;49.742;18.802;2023-02-16T02:11:29;98590.94;;;0.74;100.00
32492;BME280;20605;49.742;18.802;2023-02-16T02:14:03;98593.29;;;0.89;100.00
32492;BME280;20605;49.742;18.802;2023-02-16T02:16:30;98596.12;;;1.03;100.00
32492;BME280;20605;49.742;18.802;2023-02-16T02:18:56;98605.24;;;1.06;100.00
32492;BME280;20605;49.742;18.802;2023-02-16T02:25:17;98604.80;;;0.42;100.00
32492;BME280;20605;49.742;18.802;2023-02-16T02:27:52;98601.05;;;0.11;100.00
32492;BME280;20605;49.742;18.802;2023-02-16T02:35:32;98593.59;;;-0.18;100.00
32492;BME280;20605;49.742;18.802;2023-02-16T02:41:02;98603.61;;;-0.13;100.00
32492;BME280;20605;49.742;18.802;2023-02-16T02:46:25;98607.75;;;-0.11;100.00
32492;BME280;20605;49.742;18.802;2023-02-16T02:48:53;98610.13;;;-0.19;100.00
32492;BME280;20605;49.742;18.802;2023-02-16T02:51:20;98603.95;;;-0.27;100.00
32492;BME280;20605;49.742;18.802;2023-02-16T02:54:19;98604.42;;;-0.28;100.00
32492;BME280;20605;49.742;18.802;2023-02-16T02:57:15;98602.30;;;-0.25;100.00
32492;BME280;20605;49.742;18.802;2023-02-16T03:00:10;98601.65;;;-0.24;100.00
32492;BME280;20605;49.742;18.802;2023-02-16T03:03:01;98603.83;;;0.05;100.00
32492;BME280;20605;49.742;18.802;2023-02-16T03:05:32;98601.67;;;0.39;100.00
32492;BME280;20605;49.742;18.802;2023-02-16T03:08:05;98599.61;;;0.63;100.00
32492;BME280;20605;49.742;18.802;2023-02-16T03:10:41;98597.48;;;0.85;100.00
32492;BME280;20605;49.742;18.802;2023-02-16T03:13:37;98600.70;;;1.10;100.00
32492;BME280;20605;49.742;18.802;2023-02-16T03:16:09;98598.42;;;1.26;100.00
32492;BME280;20605;49.742;18.802;2023-02-16T03:18:37;98610.24;;;1.39;100.00
32492;BME280;20605;49.742;18.802;2023-02-16T03:21:24;98613.86;;;1.49;100.00
32492;BME280;20605;49.742;18.802;2023-02-16T03:24:14;98615.69;;;1.56;100.00
32492;BME280;20605;49.742;18.802;2023-02-16T03:27:01;98618.58;;;1.55;100.00
32492;BME280;20605;49.742;18.802;2023-02-16T03:29:48;98615.42;;;1.51;100.00
32492;BME280;20605;49.742;18.802;2023-02-16T03:32:18;98614.17;;;1.48;100.00
32492;BME280;20605;49.742;18.802;2023-02-16T03:34:44;98615.63;;;1.43;100.00
32492;BME280;20605;49.742;18.802;2023-02-16T03:37:11;98623.33;;;1.33;100.00
32492;BME280;20605;49.742;18.802;2023-02-16T03:39:38;98623.36;;;1.06;100.00
32492;BME280;20605;49.742;18.802;2023-02-16T03:42:23;98621.65;;;0.96;100.00
32492;BME280;20605;49.742;18.802;2023-02-16T03:44:50;98612.84;;;0.92;100.00
32492;BME280;20605;49.742;18.802;2023-02-16T03:47:17;98608.43;;;0.94;100.00
32492;BME280;20605;49.742;18.802;2023-02-16T03:49:42;98609.34;;;1.06;100.00
32492;BME280;20605;49.742;18.802;2023-02-16T03:52:09;98607.82;;;1.16;100.00
32492;BME280;20605;49.742;18.802;2023-02-16T03:54:35;98604.67;;;1.22;100.00
32492;BME280;20605;49.742;18.802;2023-02-16T03:57:01;98597.52;;;1.23;100.00
32492;BME280;20605;49.742;18.802;2023-02-16T03:59:27;98600.41;;;1.22;100.00
32492;BME280;20605;49.742;18.802;2023-02-16T04:01:53;98597.15;;;1.22;100.00
32492;BME280;20605;49.742;18.802;2023-02-16T04:04:19;98591.58;;;1.26;100.00
32492;BME280;20605;49.742;18.802;2023-02-16T04:06:46;98586.67;;;1.29;100.00
32492;BME280;20605;49.742;18.802;2023-02-16T04:09:12;98589.20;;;1.27;100.00
32492;BME280;20605;49.742;18.802;2023-02-16T04:11:38;98582.30;;;1.23;100.00
32492;BME280;20605;49.742;18.802;2023-02-16T04:14:22;98578.02;;;1.23;100.00
32492;BME280;20605;49.742;18.802;2023-02-16T04:16:48;98578.55;;;1.25;100.00
32492;BME280;20605;49.742;18.802;2023-02-16T04:19:14;98582.14;;;1.25;100.00
32492;BME280;20605;49.742;18.802;2023-02-16T04:21:40;98585.77;;;1.27;100.00
32492;BME280;20605;49.742;18.802;2023-02-16T04:24:07;98587.99;;;1.27;100.00
32492;BME280;20605;49.742;18.802;2023-02-16T04:26:33;98575.39;;;1.20;100.00
32492;BME280;20605;49.742;18.802;2023-02-16T04:28:59;98570.12;;;1.22;100.00
32492;BME280;20605;49.742;18.802;2023-02-16T04:31:25;98574.44;;;1.24;100.00
32492;BME280;20605;49.742;18.802;2023-02-16T04:33:51;98577.39;;;1.26;100.00
32492;BME280;20605;49.742;18.802;2023-02-16T04:36:17;98569.86;;;1.26;100.00
32492;BME280;20605;49.742;18.802;2023-02-16T04:38:42;98571.23;;;1.26;100.00
32492;BME280;20605;49.742;18.802;2023-02-16T04:41:08;98572.97;;;1.28;100.00
32492;BME280;20605;49.742;18.802;2023-02-16T04:43:34;98565.09;;;1.27;100.00
32492;BME280;20605;49.742;18.802;2023-02-16T04:46:00;98562.67;;;1.26;100.00
32492;BME280;20605;49.742;18.802;2023-02-16T04:48:26;98557.38;;;1.27;100.00
32492;BME280;20605;49.742;18.802;2023-02-16T04:50:51;98558.91;;;1.27;100.00
32492;BME280;20605;49.742;18.802;2023-02-16T04:53:17;98560.27;;;1.26;100.00
32492;BME280;20605;49.742;18.802;2023-02-16T04:55:47;98553.11;;;1.27;100.00
32492;BME280;20605;49.742;18.802;2023-02-16T04:58:14;98551.09;;;1.30;100.00
32492;BME280;20605;49.742;18.802;2023-02-16T05:00:41;98557.94;;;1.29;100.00
32492;BME280;20605;49.742;18.802;2023-02-16T05:03:07;98551.95;;;1.29;100.00
32492;BME280;20605;49.742;18.802;2023-02-16T05:05:33;98565.12;;;1.29;100.00
32492;BME280;20605;49.742;18.802;2023-02-16T05:08:01;98556.02;;;1.28;100.00
32492;BME280;20605;49.742;18.802;2023-02-16T05:10:27;98563.02;;;1.26;100.00
32492;BME280;20605;49.742;18.802;2023-02-16T05:12:53;98560.30;;;1.28;100.00
32492;BME280;20605;49.742;18.802;2023-02-16T05:15:38;98562.89;;;1.29;100.00
32492;BME280;20605;49.742;18.802;2023-02-16T05:18:04;98559.64;;;1.29;100.00
32492;BME280;20605;49.742;18.802;2023-02-16T05:20:30;98549.01;;;1.27;100.00
32492;BME280;20605;49.742;18.802;2023-02-16T05:23:14;98552.88;;;1.24;100.00
32492;BME280;20605;49.742;18.802;2023-02-16T05:25:40;98551.83;;;1.22;100.00
32492;BME280;20605;49.742;18.802;2023-02-16T05:28:06;98552.84;;;1.21;100.00
32492;BME280;20605;49.742;18.802;2023-02-16T05:30:32;98555.92;;;1.22;100.00
32492;BME280;20605;49.742;18.802;2023-02-16T05:32:58;98563.48;;;1.23;100.00
32492;BME280;20605;49.742;18.802;2023-02-16T05:35:24;98563.02;;;1.26;100.00
32492;BME280;20605;49.742;18.802;2023-02-16T05:37:50;98569.38;;;1.28;100.00
32492;BME280;20605;49.742;18.802;2023-02-16T05:40:16;98564.73;;;1.26;100.00
32492;BME280;20605;49.742;18.802;2023-02-16T05:42:42;98559.38;;;1.23;100.00
32492;BME280;20605;49.742;18.802;2023-02-16T05:45:08;98566.05;;;1.24;100.00
32492;BME280;20605;49.742;18.802;2023-02-16T05:47:34;98562.48;;;1.26;100.00
32492;BME280;20605;49.742;18.802;2023-02-16T05:50:00;98565.39;;;1.25;100.00
32492;BME280;20605;49.742;18.802;2023-02-16T05:52:26;98566.77;;;1.25;100.00
32492;BME280;20605;49.742;18.802;2023-02-16T05:54:52;98566.42;;;1.25;100.00
32492;BME280;20605;49.742;18.802;2023-02-16T05:57:18;98556.53;;;1.27;100.00
32492;BME280;20605;49.742;18.802;2023-02-16T05:59:43;98570.08;;;1.30;100.00
32492;BME280;20605;49.742;18.802;2023-02-16T06:02:09;98556.23;;;1.30;100.00
32492;BME280;20605;49.742;18.802;2023-02-16T06:04:35;98562.38;;;1.30;100.00
32492;BME280;20605;49.742;18.802;2023-02-16T06:07:02;98566.49;;;1.29;100.00
32492;BME280;20605;49.742;18.802;2023-02-16T06:09:27;98568.89;;;1.31;100.00
32492;BME280;20605;49.742;18.802;2023-02-16T06:11:56;98564.31;;;1.34;100.00
32492;BME280;20605;49.742;18.802;2023-02-16T06:14:21;98558.16;;;1.35;100.00
32492;BME280;20605;49.742;18.802;2023-02-16T06:16:49;98555.63;;;1.37;100.00
32492;BME280;20605;49.742;18.802;2023-02-16T06:19:17;98559.95;;;1.40;100.00
32492;BME280;20605;49.742;18.802;2023-02-16T06:21:43;98561.34;;;1.41;100.00
32492;BME280;20605;49.742;18.802;2023-02-16T06:24:10;98574.22;;;1.43;100.00
32492;BME280;20605;49.742;18.802;2023-02-16T06:26:39;98582.99;;;1.46;100.00
32492;BME280;20605;49.742;18.802;2023-02-16T06:29:05;98579.07;;;1.46;100.00
32492;BME280;20605;49.742;18.802;2023-02-16T06:31:32;98578.19;;;1.45;100.00
32492;BME280;20605;49.742;18.802;2023-02-16T06:33:58;98598.76;;;1.47;100.00
32492;BME280;20605;49.742;18.802;2023-02-16T06:36:24;98592.34;;;1.52;100.00
32492;BME280;20605;49.742;18.802;2023-02-16T06:38:49;98597.73;;;1.58;100.00
32492;BME280;20605;49.742;18.802;2023-02-16T06:41:16;98601.27;;;1.63;100.00
32492;BME280;20605;49.742;18.802;2023-02-16T06:44:03;98606.05;;;1.63;100.00
32492;BME280;20605;49.742;18.802;2023-02-16T06:46:30;98608.02;;;1.69;100.00
32492;BME280;20605;49.742;18.802;2023-02-16T06:48:56;98610.09;;;2.68;100.00
32492;BME280;20605;49.742;18.802;2023-02-16T06:51:22;98608.84;;;4.34;100.00
32492;BME280;20605;49.742;18.802;2023-02-16T06:53:48;98602.02;;;6.12;100.00
32492;BME280;20605;49.742;18.802;2023-02-16T06:56:14;98604.58;;;7.53;100.00
32492;BME280;20605;49.742;18.802;2023-02-16T06:58:47;98602.67;;;8.83;100.00
32492;BME280;20605;49.742;18.802;2023-02-16T07:01:19;98598.77;;;9.54;99.92
32492;BME280;20605;49.742;18.802;2023-02-16T07:03:51;98599.45;;;10.49;100.00
32492;BME280;20605;49.742;18.802;2023-02-16T07:06:18;98599.91;;;10.96;99.82
32492;BME280;20605;49.742;18.802;2023-02-16T07:08:44;98595.16;;;11.62;96.89
32492;BME280;20605;49.742;18.802;2023-02-16T07:11:11;98588.99;;;11.95;94.89
32492;BME280;20605;49.742;18.802;2023-02-16T07:13:37;98584.39;;;11.97;89.87
32492;BME280;20605;49.742;18.802;2023-02-16T07:16:03;98584.92;;;11.54;89.42
32492;BME280;20605;49.742;18.802;2023-02-16T07:18:30;98583.23;;;11.88;89.96
32492;BME280;20605;49.742;18.802;2023-02-16T07:20:57;98574.80;;;11.77;85.79
32492;BME280;20605;49.742;18.802;2023-02-16T07:23:22;98574.80;;;11.56;84.34
32492;BME280;20605;49.742;18.802;2023-02-16T07:25:48;98583.38;;;11.53;82.10
32492;BME280;20605;49.742;18.802;2023-02-16T07:28:14;98565.84;;;11.74;85.12
32492;BME280;20605;49.742;18.802;2023-02-16T07:30:40;98569.46;;;12.50;81.48
32492;BME280;20605;49.742;18.802;2023-02-16T07:33:06;98565.19;;;12.47;78.37
32492;BME280;20605;49.742;18.802;2023-02-16T07:35:35;98567.84;;;12.32;77.73
32492;BME280;20605;49.742;18.802;2023-02-16T07:38:02;98578.11;;;12.95;79.58
32492;BME280;20605;49.742;18.802;2023-02-16T07:40:29;98567.10;;;13.54;77.05
32492;BME280;20605;49.742;18.802;2023-02-16T07:42:58;98567.19;;;13.95;74.94
32492;BME280;20605;49.742;18.802;2023-02-16T07:45:26;98566.59;;;14.71;78.52
32492;BME280;20605;49.742;18.802;2023-02-16T07:47:51;98561.27;;;16.12;76.04
32492;BME280;20605;49.742;18.802;2023-02-16T07:50:17;98560.02;;;17.01;73.80
32492;BME280;20605;49.742;18.802;2023-02-16T07:52:43;98557.96;;;17.19;68.80
32492;BME280;20605;49.742;18.802;2023-02-16T07:55:10;98554.29;;;17.26;69.78
32492;BME280;20605;49.742;18.802;2023-02-16T07:57:37;98549.26;;;18.02;68.35
32492;BME280;20605;49.742;18.802;2023-02-16T08:00:07;98547.89;;;18.32;64.90
32492;BME280;20605;49.742;18.802;2023-02-16T08:02:39;98551.58;;;19.15;69.09
32492;BME280;20605;49.742;18.802;2023-02-16T08:05:05;98552.03;;;20.91;71.21
32492;BME280;20605;49.742;18.802;2023-02-16T08:07:31;98554.12;;;22.43;66.34
32492;BME280;20605;49.742;18.802;2023-02-16T08:09:57;98553.30;;;22.47;57.61
32492;BME280;20605;49.742;18.802;2023-02-16T08:12:24;98552.66;;;21.41;55.51
32492;BME280;20605;49.742;18.802;2023-02-16T08:14:50;98558.02;;;21.13;61.16
32492;BME280;20605;49.742;18.802;2023-02-16T08:17:16;98569.29;;;21.38;54.13
32492;BME280;20605;49.742;18.802;2023-02-16T08:19:42;98564.84;;;20.51;55.78
32492;BME280;20605;49.742;18.802;2023-02-16T08:22:08;98571.07;;;20.82;53.81
32492;BME280;20605;49.742;18.802;2023-02-16T08:24:34;98561.89;;;19.89;51.61
32492;BME280;20605;49.742;18.802;2023-02-16T08:27:02;98555.95;;;19.29;53.38
32492;BME280;20605;49.742;18.802;2023-02-16T08:29:29;98562.52;;;19.44;55.67
32492;BME280;20605;49.742;18.802;2023-02-16T08:31:55;98558.61;;;19.64;54.12
32492;BME280;20605;49.742;18.802;2023-02-16T08:34:22;98565.20;;;19.24;50.65
32492;BME280;20605;49.742;18.802;2023-02-16T08:36:56;98553.92;;;18.11;52.66
32492;BME280;20605;49.742;18.802;2023-02-16T08:39:27;98558.61;;;18.12;54.10
32492;BME280;20605;49.742;18.802;2023-02-16T08:41:55;98556.84;;;17.69;52.73
32492;BME280;20605;49.742;18.802;2023-02-16T08:44:23;98561.66;;;16.92;53.39
32492;BME280;20605;49.742;18.802;2023-02-16T08:46:51;98552.86;;;17.31;55.39
32492;BME280;20605;49.742;18.802;2023-02-16T08:49:18;98557.77;;;17.60;54.51
32492;BME280;20605;49.742;18.802;2023-02-16T08:51:49;98561.27;;;17.23;52.73
32492;BME280;20605;49.742;18.802;2023-02-16T08:54:19;98566.52;;;16.54;53.73
32492;BME280;20605;49.742;18.802;2023-02-16T08:56:45;98569.29;;;16.18;55.16
32492;BME280;20605;49.742;18.802;2023-02-16T08:59:17;98562.40;;;16.32;56.48
32492;BME280;20605;49.742;18.802;2023-02-16T09:01:45;98570.17;;;16.58;55.29
32492;BME280;20605;49.742;18.802;2023-02-16T09:04:11;98573.79;;;16.60;56.20
32492;BME280;20605;49.742;18.802;2023-02-16T09:06:41;98576.88;;;16.21;54.07
32492;BME280;20605;49.742;18.802;2023-02-16T09:09:09;98574.95;;;15.47;56.16
32492;BME280;20605;49.742;18.802;2023-02-16T09:11:36;98578.86;;;15.81;57.43
32492;BME280;20605;49.742;18.802;2023-02-16T09:14:02;98584.10;;;15.95;55.78
32492;BME280;20605;49.742;18.802;2023-02-16T09:16:28;98581.77;;;15.78;57.10
32492;BME280;20605;49.742;18.802;2023-02-16T09:19:00;98586.90;;;15.95;57.07
32492;BME280;20605;49.742;18.802;2023-02-16T09:21:27;98585.17;;;15.85;56.94
32492;BME280;20605;49.742;18.802;2023-02-16T09:23:59;98583.20;;;16.20;57.85
32492;BME280;20605;49.742;18.802;2023-02-16T10:20:41;98595.17;;;11.61;64.55
32492;BME280;20605;49.742;18.802;2023-02-16T10:23:41;98590.36;;;10.96;66.29
32492;BME280;20605;49.742;18.802;2023-02-16T10:53:20;98556.66;;;8.38;78.37
32492;BME280;20605;49.742;18.802;2023-02-16T10:58:58;98555.42;;;8.19;79.90
32492;BME280;20605;49.742;18.802;2023-02-16T11:01:50;98546.39;;;8.05;80.27
32492;BME280;20605;49.742;18.802;2023-02-16T11:04:53;98542.73;;;8.09;81.18
32492;BME280;20605;49.742;18.802;2023-02-16T11:07:53;98540.64;;;7.92;81.61
32492;BME280;20605;49.742;18.802;2023-02-16T11:10:59;98542.42;;;7.71;83.05
32492;BME280;20605;49.742;18.802;2023-02-16T11:16:31;98528.79;;;7.68;83.22
32492;BME280;20605;49.742;18.802;2023-02-16T11:20:23;98527.48;;;7.78;82.80
32492;BME280;20605;49.742;18.802;2023-02-16T11:29:15;98518.05;;;8.05;82.81
32492;BME280;20605;49.742;18.802;2023-02-16T11:32:11;98516.35;;;8.18;82.42
32492;BME280;20605;49.742;18.802;2023-02-16T11:35:12;98512.17;;;8.20;82.81
32492;BME280;20605;49.742;18.802;2023-02-16T11:37:50;98502.15;;;8.19;82.88
32492;BME280;20605;49.742;18.802;2023-02-16T11:41:00;98501.45;;;8.19;83.03
32492;BME280;20605;49.742;18.802;2023-02-16T11:43:47;98498.94;;;8.11;83.47
32492;BME280;20605;49.742;18.802;2023-02-16T11:49:50;98485.61;;;8.12;83.61
32492;BME280;20605;49.742;18.802;2023-02-16T11:56:08;98489.73;;;8.30;83.64
32492;BME280;20605;49.742;18.802;2023-02-16T12:14:21;98478.11;;;8.76;82.65
32492;BME280;20605;49.742;18.802;2023-02-16T18:13:46;98449.40;;;3.20;100.00
32492;BME280;20605;49.742;18.802;2023-02-16T18:16:14;98451.25;;;3.15;100.00
32492;BME280;20605;49.742;18.802;2023-02-16T18:18:43;98455.85;;;3.12;100.00
32492;BME280;20605;49.742;18.802;2023-02-16T18:21:10;98453.19;;;3.02;100.00
32492;BME280;20605;49.742;18.802;2023-02-16T18:23:36;98448.64;;;2.91;100.00
32492;BME280;20605;49.742;18.802;2023-02-16T18:26:03;98451.30;;;2.83;100.00
32492;BME280;20605;49.742;18.802;2023-02-16T18:28:31;98455.00;;;2.75;100.00
32492;BME280;20605;49.742;18.802;2023-02-16T18:30:58;98456.33;;;2.70;100.00
32492;BME280;20605;49.742;18.802;2023-02-16T18:33:25;98453.36;;;2.65;100.00
32492;BME280;20605;49.742;18.802;2023-02-16T18:35:54;98455.04;;;2.60;100.00
32492;BME280;20605;49.742;18.802;2023-02-16T18:38:21;98457.41;;;2.56;100.00
32492;BME280;20605;49.742;18.802;2023-02-16T18:40:47;98459.95;;;2.52;100.00
32492;BME280;20605;49.742;18.802;2023-02-16T18:43:13;98466.42;;;2.48;100.00
32492;BME280;20605;49.742;18.802;2023-02-16T18:45:40;98467.89;;;2.43;100.00
32492;BME280;20605;49.742;18.802;2023-02-16T18:48:06;98465.80;;;2.39;100.00
32492;BME280;20605;49.742;18.802;2023-02-16T18:50:33;98467.64;;;2.35;100.00
32492;BME280;20605;49.742;18.802;2023-02-16T18:52:59;98466.74;;;2.32;100.00
32492;BME280;20605;49.742;18.802;2023-02-16T18:55:25;98465.84;;;2.28;100.00
32492;BME280;20605;49.742;18.802;2023-02-16T18:57:59;98467.52;;;2.24;100.00
32492;BME280;20605;49.742;18.802;2023-02-16T19:00:25;98468.13;;;2.19;100.00
32492;BME280;20605;49.742;18.802;2023-02-16T19:02:51;98469.11;;;2.15;100.00
32492;BME280;20605;49.742;18.802;2023-02-16T19:05:19;98467.70;;;2.11;100.00
32492;BME280;20605;49.742;18.802;2023-02-16T19:07:44;98470.77;;;2.10;100.00
32492;BME280;20605;49.742;18.802;2023-02-16T19:10:10;98474.89;;;2.11;100.00
32492;BME280;20605;49.742;18.802;2023-02-16T19:12:37;98474.36;;;2.10;100.00
32492;BME280;20605;49.742;18.802;2023-02-16T19:15:04;98471.26;;;2.08;100.00
32492;BME280;20605;49.742;18.802;2023-02-16T19:17:31;98472.27;;;2.07;100.00
32492;BME280;20605;49.742;18.802;2023-02-16T19:19:57;98467.78;;;2.04;100.00
32492;BME280;20605;49.742;18.802;2023-02-16T19:22:22;98468.23;;;2.00;100.00
32492;BME280;20605;49.742;18.802;2023-02-16T19:24:48;98473.52;;;1.99;100.00
32492;BME280;20605;49.742;18.802;2023-02-16T19:27:14;98472.30;;;1.96;100.00
32492;BME280;20605;49.742;18.802;2023-02-16T19:29:40;98473.14;;;1.95;100.00
32492;BME280;20605;49.742;18.802;2023-02-16T19:32:06;98472.48;;;1.97;100.00
32492;BME280;20605;49.742;18.802;2023-02-16T19:34:33;98473.05;;;2.01;100.00
32492;BME280;20605;49.742;18.802;2023-02-16T19:36:59;98475.45;;;2.01;100.00
32492;BME280;20605;49.742;18.802;2023-02-16T19:39:25;98471.20;;;2.04;100.00
32492;BME280;20605;49.742;18.802;2023-02-16T19:41:51;98466.44;;;2.07;100.00
32492;BME280;20605;49.742;18.802;2023-02-16T19:44:17;98461.48;;;2.07;100.00
32492;BME280;20605;49.742;18.802;2023-02-16T19:46:43;98459.77;;;2.07;100.00
32492;BME280;20605;49.742;18.802;2023-02-16T19:49:13;98460.30;;;2.09;100.00
32492;BME280;20605;49.742;18.802;2023-02-16T19:51:40;98461.18;;;2.11;100.00
32492;BME280;20605;49.742;18.802;2023-02-16T19:54:06;98459.81;;;2.11;100.00
32492;BME280;20605;49.742;18.802;2023-02-16T19:56:32;98460.66;;;2.10;100.00
32492;BME280;20605;49.742;18.802;2023-02-16T19:59:01;98461.84;;;2.08;100.00
32492;BME280;20605;49.742;18.802;2023-02-16T20:01:27;98463.20;;;2.07;100.00
32492;BME280;20605;49.742;18.802;2023-02-16T20:03:53;98463.36;;;2.07;100.00
32492;BME280;20605;49.742;18.802;2023-02-16T20:06:23;98463.69;;;2.06;100.00
32492;BME280;20605;49.742;18.802;2023-02-16T20:08:50;98464.16;;;2.03;100.00
32492;BME280;20605;49.742;18.802;2023-02-16T20:11:19;98466.48;;;1.97;100.00
32492;BME280;20605;49.742;18.802;2023-02-16T20:13:45;98463.20;;;1.94;100.00
32492;BME280;20605;49.742;18.802;2023-02-16T20:16:12;98466.94;;;1.91;100.00
32492;BME280;20605;49.742;18.802;2023-02-16T20:18:39;98472.23;;;1.90;100.00
32492;BME280;20605;49.742;18.802;2023-02-16T20:21:10;98467.05;;;1.88;100.00
32492;BME280;20605;49.742;18.802;2023-02-16T20:23:36;98472.30;;;1.84;100.00
32492;BME280;20605;49.742;18.802;2023-02-16T20:26:09;98467.45;;;1.80;100.00
32492;BME280;20605;49.742;18.802;2023-02-16T20:28:35;98469.66;;;1.78;100.00
32492;BME280;20605;49.742;18.802;2023-02-16T20:31:01;98472.54;;;1.76;100.00
32492;BME280;20605;49.742;18.802;2023-02-16T20:33:28;98470.77;;;1.73;100.00
32492;BME280;20605;49.742;18.802;2023-02-16T20:35:53;98474.11;;;1.66;100.00
32492;BME280;20605;49.742;18.802;2023-02-16T20:38:19;98466.86;;;1.62;100.00
32492;BME280;20605;49.742;18.802;2023-02-16T20:40:45;98467.19;;;1.60;100.00
32492;BME280;20605;49.742;18.802;2023-02-16T20:43:11;98464.13;;;1.62;100.00
32492;BME280;20605;49.742;18.802;2023-02-16T20:45:37;98468.42;;;1.64;100.00
32492;BME280;20605;49.742;18.802;2023-02-16T20:48:08;98464.48;;;1.63;100.00
32492;BME280;20605;49.742;18.802;2023-02-16T20:50:35;98467.02;;;1.62;100.00
32492;BME280;20605;49.742;18.802;2023-02-16T20:53:04;98464.14;;;1.62;100.00
32492;BME280;20605;49.742;18.802;2023-02-16T20:55:31;98467.20;;;1.62;100.00
32492;BME280;20605;49.742;18.802;2023-02-16T20:57:58;98464.81;;;1.62;100.00
32492;BME280;20605;49.742;18.802;2023-02-16T21:00:25;98467.73;;;1.63;100.00
32492;BME280;20605;49.742;18.802;2023-02-16T21:02:52;98466.72;;;1.64;100.00
32492;BME280;20605;49.742;18.802;2023-02-16T21:05:18;98465.02;;;1.65;100.00
32492;BME280;20605;49.742;18.802;2023-02-16T21:07:45;98466.05;;;1.64;100.00
32492;BME280;20605;49.742;18.802;2023-02-16T21:10:13;98465.02;;;1.64;100.00
32492;BME280;20605;49.742;18.802;2023-02-16T21:12:40;98466.88;;;1.63;100.00
32492;BME280;20605;49.742;18.802;2023-02-16T21:15:06;98469.59;;;1.61;100.00
32492;BME280;20605;49.742;18.802;2023-02-16T21:17:34;98468.38;;;1.59;100.00
32492;BME280;20605;49.742;18.802;2023-02-16T21:20:00;98467.15;;;1.58;100.00
32492;BME280;20605;49.742;18.802;2023-02-16T21:22:25;98469.19;;;1.57;100.00
32492;BME280;20605;49.742;18.802;2023-02-16T21:24:52;98463.34;;;1.55;100.00